Data for 11/20/2017

Time Sea-Level Adjusted Pressure Absolute Pressure Temperature Relative Humidity Dew Point   
(mb) (inHg) (mb) (inHg) (C) (F) (%) (C) (F)
00:05 1010 29.83 839 24.78 6.6 43.8 23 -13.1 8.5
00:10 1010 29.83 839 24.78 6.8 44.2 25 -12.2 10.1
00:15 1010 29.83 839 24.78 6.8 44.3 23 -12.8 9
00:20 1010 29.83 839 24.78 6.9 44.5 21 -14.1 6.6
00:25 1010 29.83 839 24.78 7.3 45.1 23 -12.7 9.1
00:30 1010 29.83 839 24.78 7.2 44.9 23 -12.7 9.2
00:35 1010 29.83 839 24.78 7.1 44.7 23 -12.5 9.6
00:40 1010 29.83 839 24.78 6.9 44.5 24 -12.5 9.5
00:45 1010 29.83 839 24.78 6.7 44 25 -12.2 10.1
00:50 1010 29.83 839 24.78 6.6 43.9 24 -12.4 9.8
00:55 1010 29.83 839 24.78 6.8 44.2 25 -12 10.3
01:00 1010 29.83 839 24.78 6.8 44.3 25 -11.9 10.6
01:05 1010 29.83 839 24.78 7.1 44.7 25 -11.7 11
01:10 1010 29.83 839 24.78 7.3 45.1 26 -11.3 11.7
01:15 1010 29.83 839 24.78 7.4 45.3 24 -12.2 10.1
01:20 1010 29.83 839 24.78 7.5 45.4 23 -12.2 10
01:25 1010 29.83 839 24.78 7.5 45.4 25 -11.3 11.6
01:30 1010 29.83 839 24.78 7.3 45.2 24 -12.2 10
01:35 1010 29.83 839 24.78 7.5 45.5 23 -12.3 9.8
01:40 1010 29.83 839 24.78 7.3 45.2 25 -11.3 11.7
01:45 1010 29.83 839 24.78 7.1 44.8 22 -13.2 8.2
01:50 1010 29.83 839 24.78 7.5 45.5 22 -13 8.6
01:55 1010 29.83 839 24.78 7.8 46 23 -12.4 9.7
02:00 1010 29.83 839 24.78 7.4 45.4 22 -13.2 8.2
02:05 1010 29.83 839 24.78 7.8 46 22 -12.7 9.1
02:10 1010 29.83 839 24.78 7.6 45.7 22 -13 8.7
02:15 1010 29.83 840 24.81 7.5 45.6 24 -11.7 10.9
02:20 1010 29.83 839 24.78 7.3 45.1 25 -11.8 10.8
02:25 1010 29.83 839 24.78 7.6 45.6 25 -11.4 11.6
02:30 1010 29.83 839 24.78 7.8 46 25 -11.1 12.1
02:35 1010 29.83 839 24.78 7.8 46 27 -10.2 13.6
02:40 1010 29.83 839 24.78 7.5 45.6 28 -10 14
02:45 1010 29.83 839 24.78 7.4 45.2 28 -10.1 13.7
02:50 1010 29.83 839 24.78 7.5 45.5 28 -10 13.9
02:55 1010 29.83 839 24.78 7.5 45.4 28 -9.8 14.3
03:00 1010 29.83 839 24.78 7.4 45.2 29 -9.6 14.7
03:05 1010 29.83 839 24.78 7.3 45.2 28 -10.1 13.8
03:10 1010 29.83 839 24.78 7.6 45.7 28 -9.9 14.2
03:15 1010 29.83 839 24.78 7.5 45.4 28 -10 14.1
03:20 1010 29.83 839 24.78 7.2 44.9 28 -10.3 13.5
03:25 1010 29.83 839 24.78 7.1 44.9 27 -10.6 12.8
03:30 1010 29.83 839 24.78 7 44.6 26 -11.2 11.8
03:35 1010 29.83 839 24.78 7 44.6 27 -10.9 12.4
03:40 1010 29.83 839 24.78 6.9 44.4 26 -11.4 11.6
03:45 1010 29.83 839 24.78 6.9 44.4 26 -11.3 11.6
03:50 1010 29.83 839 24.78 6.8 44.2 26 -11.2 11.8
03:55 1010 29.83 839 24.78 6.6 43.9 27 -11.2 11.9
04:00 1009 29.8 839 24.78 6.5 43.7 28 -10.8 12.5
04:05 1009 29.8 839 24.78 6.4 43.6 27 -11.3 11.7
04:10 1009 29.8 838 24.75 6.4 43.6 27 -11.4 11.5
04:15 1009 29.8 838 24.75 6.5 43.7 27 -11.4 11.5
04:20 1009 29.8 838 24.75 6.5 43.6 28 -11 12.2
04:25 1009 29.8 838 24.75 6.2 43.2 29 -10.7 12.8
04:30 1009 29.8 838 24.75 6.2 43.1 28 -10.9 12.3
04:35 1009 29.8 838 24.75 6.2 43.1 28 -11.1 12.1
04:40 1009 29.8 838 24.75 6.3 43.3 28 -10.9 12.3
04:45 1009 29.8 838 24.75 6.3 43.3 27 -11.2 11.8
04:50 1009 29.8 838 24.75 6.5 43.6 28 -10.6 12.9
04:55 1009 29.8 839 24.78 6.2 43.2 29 -10.6 12.9
05:00 1010 29.83 839 24.78 5.8 42.4 31 -10.1 13.9
05:05 1010 29.83 839 24.78 5.4 41.7 31 -10.3 13.4
05:10 1010 29.83 839 24.78 5.2 41.4 32 -10.3 13.4
05:15 1010 29.83 839 24.78 5.3 41.5 32 -10.2 13.7
05:20 1010 29.83 839 24.78 5.3 41.5 32 -10.1 13.7
05:25 1010 29.83 839 24.78 6 42.8 30 -10.3 13.5
05:30 1010 29.83 839 24.78 7.2 45 29 -9.5 14.9
05:35 1010 29.83 839 24.78 7.4 45.4 29 -9.3 15.3
05:40 1010 29.83 839 24.78 7.7 45.9 29 -9.4 15
05:45 1010 29.83 839 24.78 8 46.4 29 -9 15.8
05:50 1010 29.83 839 24.78 8 46.3 29 -8.9 16
05:55 1010 29.83 839 24.78 8.1 46.5 30 -8.7 16.4
06:00 1010 29.83 839 24.78 8.1 46.6 29 -9 15.8
06:05 1010 29.83 839 24.78 8.2 46.7 29 -8.6 16.5
06:10 1010 29.83 839 24.78 8.1 46.6 30 -8.4 16.9
06:15 1010 29.83 839 24.78 8 46.3 31 -8.1 17.5
06:20 1010 29.83 839 24.78 7.9 46.1 32 -7.9 17.7
06:25 1010 29.83 839 24.78 7.7 45.9 33 -7.5 18.4
06:30 1010 29.83 839 24.78 7.6 45.7 32 -7.9 17.8
06:35 1009 29.8 839 24.78 7.8 46 32 -7.7 18.1
06:40 1010 29.83 839 24.78 7.6 45.7 34 -7.4 18.7
06:45 1010 29.83 839 24.78 7.7 45.8 32 -8 17.6
06:50 1010 29.83 839 24.78 7.9 46.3 32 -7.7 18.1
06:55 1010 29.83 839 24.78 8.3 46.9 30 -8.2 17.3
07:00 1010 29.83 839 24.78 8.6 47.5 31 -7.6 18.2
07:05 1010 29.83 839 24.78 8.3 47 33 -7.2 19
07:10 1010 29.83 839 24.78 7.9 46.3 32 -7.6 18.3
07:15 1010 29.83 839 24.78 7.8 46 33 -7.4 18.7
07:20 1010 29.83 839 24.78 7.7 45.8 33 -7.5 18.6
07:25 1010 29.83 839 24.78 7.6 45.6 33 -7.8 17.9
07:30 1010 29.83 839 24.78 8 46.3 32 -7.6 18.4
07:35 1010 29.83 840 24.81 7.9 46.3 34 -7 19.4
07:40 1010 29.83 840 24.81 7.9 46.1 33 -7.4 18.8
07:45 1011 29.85 840 24.81 8.1 46.6 33 -7.3 18.9
07:50 1011 29.85 840 24.81 8.1 46.6 33 -7.3 18.9
07:55 1011 29.85 840 24.81 8.2 46.7 33 -7.3 18.8
08:00 1011 29.85 840 24.81 8.2 46.7 33 -7.1 19.2
08:05 1011 29.85 840 24.81 8.3 46.9 32 -7.4 18.7
08:10 1011 29.85 840 24.81 8.3 47 33 -7.1 19.3
08:15 1011 29.85 840 24.81 8.2 46.8 34 -6.8 19.7
08:20 1011 29.85 840 24.81 8 46.4 34 -6.7 19.9
08:25 1011 29.85 840 24.81 7.9 46.3 35 -6.4 20.5
08:30 1011 29.85 840 24.81 7.9 46.1 37 -5.9 21.4
08:35 1011 29.85 840 24.81 7.7 45.9 37 -5.9 21.3
08:40 1011 29.85 840 24.81 7.8 46.1 38 -5.7 21.8
08:45 1011 29.85 840 24.81 7.7 45.9 38 -5.6 21.8
08:50 1011 29.85 840 24.81 7.8 46.1 39 -5.4 22.3
08:55 1011 29.85 840 24.81 7.8 46.1 39 -5.4 22.3
09:00 1011 29.85 840 24.81 8 46.3 37 -5.9 21.4
09:05 1011 29.85 840 24.81 8.4 47 35 -6.3 20.6
09:10 1010 29.83 840 24.81 8.5 47.3 37 -5.5 22.1
09:15 1010 29.83 840 24.81 8.3 47 37 -5.6 21.9
09:20 1011 29.85 840 24.81 8.5 47.2 36 -5.7 21.7
09:25 1010 29.83 840 24.81 8.6 47.4 35 -5.9 21.3
09:30 1010 29.83 840 24.81 8.8 47.8 34 -6.3 20.7
09:35 1010 29.83 840 24.81 8.9 48.1 34 -6.1 20.9
09:40 1010 29.83 840 24.81 8.9 48 33 -6.3 20.7
09:45 1010 29.83 840 24.81 8.8 47.9 34 -6.3 20.6
09:50 1011 29.85 840 24.81 8.7 47.7 34 -6.2 20.9
09:55 1011 29.85 840 24.81 8.8 47.9 34 -6 21.2
10:00 1011 29.85 840 24.81 8.8 47.8 35 -5.8 21.6
10:05 1011 29.85 840 24.81 8.7 47.6 36 -5.7 21.7
10:10 1011 29.85 840 24.81 8.6 47.5 35 -6 21.3
10:15 1011 29.85 840 24.81 8.7 47.7 35 -5.9 21.4
10:20 1011 29.85 840 24.81 8.8 47.9 35 -5.9 21.3
10:25 1011 29.85 840 24.81 8.7 47.6 36 -5.7 21.8
10:30 1011 29.85 840 24.81 8.5 47.3 37 -5.4 22.4
10:35 1011 29.85 840 24.81 8.3 47 37 -5.4 22.3
10:40 1011 29.85 840 24.81 8.2 46.7 37 -5.5 22.1
10:45 1011 29.85 840 24.81 8.2 46.7 37 -5.7 21.7
10:50 1011 29.85 840 24.81 8.3 47 37 -5.4 22.2
10:55 1011 29.85 840 24.81 8.4 47.1 38 -5 22.9
11:00 1011 29.85 840 24.81 8.2 46.7 39 -4.8 23.4
11:05 1011 29.85 840 24.81 7.9 46.2 40 -4.8 23.4
11:10 1011 29.85 840 24.81 7.7 45.9 40 -5 23
11:15 1011 29.85 840 24.81 7.8 46 40 -4.9 23.1
11:20 1011 29.85 840 24.81 7.8 46.1 40 -4.9 23.1
11:25 1011 29.85 840 24.81 7.7 45.8 44 -3.9 25
11:30 1011 29.85 840 24.81 7.3 45.1 44 -4.3 24.3
11:35 1010 29.83 840 24.81 6.9 44.4 46 -3.9 25
11:40 1010 29.83 840 24.81 6.8 44.3 45 -4.3 24.2
11:45 1011 29.85 840 24.81 6.9 44.5 46 -3.9 25
11:50 1011 29.85 840 24.81 6.8 44.2 47 -3.7 25.3
11:55 1011 29.85 840 24.81 6.4 43.5 50 -3.3 26.1
12:00 1011 29.85 840 24.81 5.9 42.6 54 -2.8 26.9
12:05 1011 29.85 840 24.81 5.5 41.9 58 -2.1 28.3
12:10 1011 29.85 840 24.81 5.1 41.1 64 -1.2 29.9
12:15 1011 29.85 840 24.81 4.6 40.3 67 -1 30.2
12:20 1011 29.85 840 24.81 4.4 39.9 68 -0.9 30.4
12:25 1011 29.85 840 24.81 4.4 39.9 70 -0.7 30.8
12:30 1011 29.85 840 24.81 4.1 39.4 72 -0.5 31.1
12:35 1011 29.85 840 24.81 4 39.2 73 -0.4 31.3
12:40 1011 29.85 840 24.81 3.8 38.8 74 -0.3 31.4
12:45 1011 29.85 840 24.81 3.7 38.6 75 -0.3 31.4
12:50 1011 29.85 840 24.81 3.7 38.7 74 -0.5 31.2
12:55 1011 29.85 840 24.81 3.8 38.8 75 -0.3 31.5
13:00 1011 29.85 840 24.81 3.7 38.7 75 -0.3 31.5
13:05 1011 29.85 840 24.81 3.7 38.7 75 -0.3 31.4
13:10 1011 29.85 840 24.81 3.8 38.9 74 -0.3 31.4
13:15 1011 29.85 840 24.81 3.8 38.8 75 -0.3 31.4
13:20 1011 29.85 840 24.81 3.8 38.9 74 -0.4 31.2
13:25 1011 29.85 840 24.81 4 39.1 73 -0.5 31.1
13:30 1011 29.85 840 24.81 4 39.2 73 -0.4 31.2
13:35 1011 29.85 840 24.81 4 39.2 73 -0.4 31.3
13:40 1011 29.85 840 24.81 4 39.2 72 -0.6 31
13:45 1011 29.85 840 24.81 4.2 39.6 71 -0.6 31
13:50 1011 29.85 840 24.81 4.4 39.9 71 -0.4 31.3
13:55 1011 29.85 840 24.81 4.3 39.7 71 -0.5 31.2
14:00 1011 29.85 840 24.81 4.3 39.7 70 -0.6 30.8
14:05 1011 29.85 840 24.81 4.4 40 69 -0.8 30.6
14:10 1011 29.85 840 24.81 4.6 40.2 69 -0.7 30.8
14:15 1011 29.85 840 24.81 4.8 40.7 66 -1 30.2
14:20 1011 29.85 840 24.81 5.4 41.7 65 -0.7 30.8
14:25 1011 29.85 841 24.83 5.4 41.6 66 -0.5 31
14:30 1011 29.85 840 24.81 4.9 40.8 69 -0.3 31.4
14:35 1011 29.85 840 24.81 4.2 39.6 71 -0.6 30.9
14:40 1011 29.85 840 24.81 4.2 39.5 72 -0.5 31.2
14:45 1011 29.85 840 24.81 4 39.1 73 -0.5 31.2
14:50 1011 29.85 840 24.81 3.8 38.8 74 -0.5 31.1
14:55 1011 29.85 841 24.83 3.7 38.7 73 -0.7 30.8
15:00 1011 29.85 841 24.83 3.9 39 72 -0.7 30.8
15:05 1011 29.85 840 24.81 3.9 39 73 -0.5 31.2
15:10 1011 29.85 840 24.81 3.7 38.7 74 -0.5 31.2
15:15 1011 29.85 840 24.81 3.7 38.7 74 -0.5 31.1
15:20 1011 29.85 840 24.81 4 39.2 73 -0.4 31.3
15:25 1011 29.85 840 24.81 3.9 39 74 -0.3 31.4
15:30 1011 29.85 840 24.81 3.8 38.8 74 -0.4 31.3
15:35 1011 29.85 840 24.81 3.8 38.8 74 -0.4 31.3
15:40 1011 29.85 840 24.81 3.8 38.8 74 -0.4 31.2
15:45 1011 29.85 840 24.81 3.9 39 73 -0.4 31.2
15:50 1011 29.85 840 24.81 3.8 38.9 75 -0.3 31.5
15:55 1011 29.85 840 24.81 3.7 38.7 75 -0.4 31.3
16:00 1011 29.85 840 24.81 3.7 38.6 74 -0.4 31.2
16:05 1011 29.85 840 24.81 3.7 38.7 75 -0.3 31.4
16:10 1011 29.85 840 24.81 3.7 38.6 75 -0.3 31.4
16:15 1011 29.85 840 24.81 3.6 38.5 76 -0.3 31.5
16:20 1011 29.85 840 24.81 3.6 38.5 75 -0.4 31.3
16:25 1011 29.85 840 24.81 3.7 38.6 75 -0.3 31.5
16:30 1011 29.85 840 24.81 3.6 38.5 76 -0.3 31.5
16:35 1011 29.85 840 24.81 3.5 38.4 76 -0.3 31.4
16:40 1011 29.85 841 24.83 3.5 38.2 76 -0.3 31.5
16:45 1011 29.85 841 24.83 3.5 38.3 75 -0.5 31.1
16:50 1011 29.85 841 24.83 3.7 38.7 75 -0.4 31.3
16:55 1012 29.88 841 24.83 3.7 38.7 74 -0.4 31.2
17:00 1012 29.88 841 24.83 3.8 38.8 74 -0.4 31.3
17:05 1012 29.88 841 24.83 3.9 39 74 -0.4 31.4
17:10 1012 29.88 841 24.83 3.8 38.9 75 -0.2 31.6
17:15 1012 29.88 841 24.83 3.7 38.7 74 -0.4 31.2
17:20 1012 29.88 841 24.83 3.9 39 70 -1 30.2
17:25 1012 29.88 841 24.83 4.4 39.9 68 -1 30.1
17:30 1012 29.88 841 24.83 4.6 40.3 69 -0.6 31
17:35 1012 29.88 841 24.83 4.4 39.9 72 -0.3 31.4
17:40 1012 29.88 842 24.86 4.3 39.7 69 -1 30.2
17:45 1012 29.88 842 24.86 4.8 40.7 67 -0.7 30.7
17:50 1012 29.88 842 24.86 4.8 40.6 68 -0.6 30.9
17:55 1012 29.88 842 24.86 4.6 40.4 69 -0.6 31
18:00 1012 29.88 842 24.86 4.2 39.6 71 -0.5 31.1
18:05 1012 29.88 841 24.83 4 39.1 71 -0.8 30.6
18:10 1012 29.88 842 24.86 4.2 39.5 70 -0.8 30.6
18:15 1013 29.91 842 24.86 4.4 39.9 69 -0.8 30.6
18:20 1013 29.91 842 24.86 4.5 40.1 69 -0.7 30.7
18:25 1013 29.91 842 24.86 4.3 39.7 70 -0.8 30.6
18:30 1013 29.91 842 24.86 4.3 39.8 69 -0.8 30.6
18:35 1013 29.91 842 24.86 4.3 39.7 70 -0.8 30.6
18:40 1013 29.91 842 24.86 4.4 39.9 69 -0.9 30.4
18:45 1013 29.91 842 24.86 4.5 40.2 67 -0.9 30.3
18:50 1013 29.91 842 24.86 4.6 40.3 67 -0.9 30.3
18:55 1013 29.91 842 24.86 4.8 40.6 66 -1 30.2
19:00 1013 29.91 842 24.86 5 41.1 64 -1.2 29.9
19:05 1013 29.91 842 24.86 5.3 41.5 63 -1.1 30
19:10 1013 29.91 842 24.86 5.4 41.7 63 -1.1 30
19:15 1013 29.91 842 24.86 5.3 41.5 64 -1.1 30.1
19:20 1013 29.91 842 24.86 5.2 41.4 64 -1.1 30
19:25 1013 29.91 843 24.89 5.2 41.3 64 -1.1 30.1
19:30 1014 29.94 843 24.89 5 41 65 -1.1 30.1
19:35 1014 29.94 843 24.89 5 40.9 65 -1 30.2
19:40 1014 29.94 843 24.89 4.8 40.7 66 -1 30.2
19:45 1014 29.94 843 24.89 4.7 40.5 66 -1.1 30.1
19:50 1014 29.94 843 24.89 4.6 40.2 67 -1.1 30
19:55 1014 29.94 843 24.89 4.5 40.2 67 -1.2 29.9
20:00 1014 29.94 844 24.92 4.6 40.3 66 -1.1 30
20:05 1014 29.94 844 24.92 4.7 40.4 66 -1.2 29.8
20:10 1015 29.97 844 24.92 4.7 40.5 66 -1.1 30.1
20:15 1015 29.97 844 24.92 4.8 40.6 66 -1.1 30.1
20:20 1015 29.97 844 24.92 4.8 40.6 67 -0.9 30.4
20:25 1015 29.97 844 24.92 4.4 40 68 -1 30.2
20:30 1015 29.97 844 24.92 4.5 40.1 67 -1.2 29.9
20:35 1015 29.97 845 24.95 4.7 40.5 67 -0.8 30.6
20:40 1016 30 845 24.95 4.6 40.3 69 -0.5 31
20:45 1016 30 845 24.95 4.4 40 71 -0.3 31.5
20:50 1016 30 845 24.95 4.3 39.7 75 0.1 32.2
20:55 1016 30 845 24.95 4.2 39.5 76 0.4 32.7
21:00 1016 30 845 24.95 4.1 39.4 78 0.5 33
21:05 1016 30 845 24.95 3.9 39.1 79 0.7 33.3
21:10 1016 30 845 24.95 3.8 38.9 80 0.7 33.3
21:15 1016 30 845 24.95 3.7 38.7 81 0.8 33.4
21:20 1016 30 845 24.95 3.6 38.5 81 0.8 33.4
21:25 1016 30 845 24.95 3.6 38.4 81 0.6 33.1
21:30 1016 30 845 24.95 3.5 38.2 81 0.6 33
21:35 1016 30 846 24.98 3.4 38.1 82 0.6 33
21:40 1017 30.03 846 24.98 3.5 38.2 82 0.7 33.2
21:45 1017 30.03 846 24.98 3.4 38.2 84 1 33.8
21:50 1017 30.03 846 24.98 3.1 37.5 85 0.7 33.3
21:55 1017 30.03 846 24.98 3.1 37.6 85 0.8 33.5
22:00 1017 30.03 847 25.01 3.3 37.9 84 0.8 33.4
22:05 1018 30.06 847 25.01 3.4 38 84 0.8 33.5
22:10 1018 30.06 847 25.01 3.3 38 84 0.8 33.5
22:15 1018 30.06 847 25.01 3.2 37.8 84 0.8 33.4
22:20 1018 30.06 847 25.01 3.2 37.7 84 0.8 33.4
22:25 1018 30.06 847 25.01 3.2 37.7 84 0.8 33.5
22:30 1018 30.06 847 25.01 3.1 37.5 85 0.8 33.4
22:35 1018 30.06 847 25.01 3 37.4 84 0.6 33
22:40 1018 30.06 847 25.01 2.9 37.2 84 0.5 32.9
22:45 1018 30.06 847 25.01 2.9 37.2 84 0.5 32.9
22:50 1018 30.06 847 25.01 2.9 37.3 84 0.5 32.8
22:55 1018 30.06 848 25.04 2.8 37.1 84 0.5 32.8
23:00 1019 30.09 848 25.04 2.9 37.3 84 0.5 32.9
23:05 1019 30.09 848 25.04 2.9 37.3 84 0.5 32.9
23:10 1019 30.09 848 25.04 2.8 37 85 0.5 32.9
23:15 1019 30.09 848 25.04 2.8 37 85 0.5 32.8
23:20 1019 30.09 848 25.04 2.9 37.2 84 0.5 32.9
23:25 1019 30.09 848 25.04 3 37.4 84 0.5 33
23:30 1019 30.09 848 25.04 3.1 37.5 83 0.5 32.9
23:35 1019 30.09 849 25.07 3.1 37.5 83 0.5 32.9
23:40 1020 30.12 849 25.07 3.1 37.6 83 0.5 33
23:45 1020 30.12 849 25.07 3.1 37.5 83 0.5 32.9
23:50 1020 30.12 849 25.07 2.9 37.2 84 0.5 32.9
23:55 1020 30.12 849 25.07 2.9 37.2 84 0.5 32.8
24:00 1020 30.12 849 25.07 3 37.4 84 0.5 32.9